createdAt,value
2018-06-13T00:01:51.618Z,25.57
2018-06-13T00:04:19.759Z,22.63
2018-06-13T00:06:47.900Z,24.83
2018-06-13T00:09:16.023Z,23.70
2018-06-13T00:11:44.174Z,29.07
2018-06-13T00:14:12.306Z,25.87
2018-06-13T00:16:40.495Z,27.03
2018-06-13T00:19:08.594Z,26.97
2018-06-13T00:21:36.758Z,32.77
2018-06-13T00:24:05.529Z,33.40
2018-06-13T00:26:33.664Z,28.40
2018-06-13T00:29:01.779Z,26.03
2018-06-13T00:31:29.911Z,26.30
2018-06-13T00:33:58.043Z,23.13
2018-06-13T00:36:26.180Z,28.87
2018-06-13T00:38:54.282Z,35.63
2018-06-13T00:41:22.426Z,24.80
2018-06-13T00:43:50.552Z,27.23
2018-06-13T00:46:18.686Z,26.00
2018-06-13T00:48:46.823Z,24.60
2018-06-13T00:51:14.934Z,30.80
2018-06-13T00:53:43.111Z,27.47
2018-06-13T00:56:28.734Z,30.63
2018-06-13T00:58:56.886Z,25.83
2018-06-13T01:01:25.021Z,25.90
2018-06-13T01:03:53.134Z,23.97
2018-06-13T01:06:21.259Z,24.77
2018-06-13T01:08:49.379Z,22.27
2018-06-13T01:11:17.514Z,28.17
2018-06-13T01:13:45.650Z,22.60
2018-06-13T01:16:13.770Z,27.53
2018-06-13T01:18:41.898Z,31.90
2018-06-13T01:21:10.034Z,27.53
2018-06-13T01:23:38.165Z,27.23
2018-06-13T01:26:06.296Z,25.23
2018-06-13T01:28:34.431Z,24.77
2018-06-13T01:31:02.550Z,26.37
2018-06-13T01:33:30.695Z,22.93
2018-06-13T01:35:58.815Z,25.33
2018-06-13T01:38:26.942Z,24.53
2018-06-13T01:40:55.067Z,25.40
2018-06-13T01:43:23.194Z,24.30
2018-06-13T01:45:51.330Z,23.83
2018-06-13T01:48:19.472Z,23.13
2018-06-13T01:50:53.226Z,28.37
2018-06-13T01:53:21.362Z,20.33
2018-06-13T01:55:49.510Z,19.43
2018-06-13T01:58:17.634Z,21.90
2018-06-13T02:00:45.764Z,20.90
2018-06-13T02:03:13.902Z,20.97
2018-06-13T02:05:42.025Z,29.67
2018-06-13T02:08:10.145Z,22.90
2018-06-13T02:10:38.270Z,22.40
2018-06-13T02:13:06.514Z,20.87
2018-06-13T02:15:34.650Z,22.17
2018-06-13T02:18:03.030Z,23.00
2018-06-13T02:20:31.148Z,26.53
2018-06-13T02:22:59.311Z,27.77
2018-06-13T02:25:27.441Z,23.53
2018-06-13T02:27:55.572Z,24.63
2018-06-13T02:30:23.705Z,27.97
2018-06-13T02:32:51.834Z,29.40
2018-06-13T02:35:19.962Z,24.20
2018-06-13T02:37:48.091Z,28.77
2018-06-13T02:40:15.992Z,27.20
2018-06-13T02:42:44.099Z,24.87
2018-06-13T02:45:12.230Z,32.30
2018-06-13T02:47:40.360Z,29.90
2018-06-13T02:50:08.484Z,24.70
2018-06-13T02:52:36.622Z,24.20
2018-06-13T02:55:05.155Z,24.93
2018-06-13T02:57:33.278Z,26.37
2018-06-13T03:00:01.423Z,24.63
2018-06-13T03:02:29.577Z,25.60
2018-06-13T03:04:57.718Z,24.10
2018-06-13T03:07:25.843Z,21.50
2018-06-13T03:09:53.993Z,21.87
2018-06-13T03:12:22.122Z,25.67
2018-06-13T03:14:50.033Z,22.43
2018-06-13T03:17:18.166Z,18.30
2018-06-13T03:19:46.307Z,21.63
2018-06-13T03:22:14.458Z,20.87
2018-06-13T03:24:42.604Z,21.17
2018-06-13T03:27:10.731Z,18.90
2018-06-13T03:29:38.856Z,20.27
2018-06-13T03:32:07.006Z,17.90
2018-06-13T03:34:35.142Z,18.27
2018-06-13T03:37:03.277Z,21.03
2018-06-13T03:39:31.402Z,19.17
2018-06-13T03:41:59.534Z,19.00
2018-06-13T03:44:27.653Z,20.60
2018-06-13T03:46:55.794Z,23.37
2018-06-13T03:49:23.922Z,21.30
2018-06-13T03:51:52.070Z,21.67
2018-06-13T03:54:20.227Z,20.60
2018-06-13T03:56:48.367Z,18.37
2018-06-13T03:59:16.483Z,17.20
2018-06-13T04:01:44.652Z,15.50
2018-06-13T04:04:12.738Z,25.43
2018-06-13T04:06:40.646Z,16.50
2018-06-13T04:09:08.779Z,18.47
2018-06-13T04:11:36.975Z,17.83
2018-06-13T04:14:05.099Z,18.80
2018-06-13T04:16:33.265Z,20.43
2018-06-13T04:19:01.419Z,19.60
2018-06-13T04:21:29.546Z,22.90
2018-06-13T04:23:57.681Z,20.50
2018-06-13T04:26:25.837Z,19.40
2018-06-13T04:28:53.979Z,19.87
2018-06-13T04:31:22.118Z,19.30
2018-06-13T04:33:50.247Z,21.37
2018-06-13T04:36:18.390Z,19.97
2018-06-13T04:38:46.328Z,17.87
2018-06-13T04:41:14.457Z,21.33
2018-06-13T04:43:42.599Z,16.50
2018-06-13T04:46:10.719Z,19.50
2018-06-13T04:48:38.915Z,16.10
2018-06-13T04:51:07.050Z,19.27
2018-06-13T04:53:35.191Z,18.93
2018-06-13T04:56:03.314Z,17.73
2018-06-13T04:58:31.462Z,16.30
2018-06-13T05:00:59.609Z,19.23
2018-06-13T05:03:27.769Z,16.17
2018-06-13T05:05:55.911Z,20.47
2018-06-13T05:08:24.034Z,20.03
2018-06-13T05:10:52.166Z,18.97
2018-06-13T05:13:20.298Z,23.47
2018-06-13T05:15:48.438Z,18.87
2018-06-13T05:18:16.590Z,20.80
2018-06-13T05:20:44.714Z,22.17
2018-06-13T05:23:12.858Z,17.30
2018-06-13T05:25:41.035Z,19.87
2018-06-13T05:28:09.175Z,17.30
2018-06-13T05:30:37.408Z,21.83
2018-06-13T05:33:05.555Z,22.83
2018-06-13T05:35:33.733Z,18.57
2018-06-13T05:38:01.871Z,18.33
2018-06-13T05:40:29.992Z,20.33
2018-06-13T05:42:58.118Z,22.00
2018-06-13T05:45:26.243Z,25.83
2018-06-13T05:47:54.370Z,17.40
2018-06-13T05:50:22.509Z,20.13
2018-06-13T05:52:50.642Z,19.33
2018-06-13T05:55:18.783Z,22.53
2018-06-13T05:57:46.957Z,21.03
2018-06-13T06:00:15.190Z,21.77
2018-06-13T06:02:43.310Z,21.80
2018-06-13T06:05:11.438Z,18.43
2018-06-13T06:07:39.573Z,23.33
2018-06-13T06:10:07.719Z,19.10
2018-06-13T06:12:35.874Z,18.73
2018-06-13T06:15:04.032Z,19.43
2018-06-13T06:17:32.147Z,19.90
2018-06-13T06:20:00.271Z,20.43
2018-06-13T06:22:28.401Z,18.10
2018-06-13T06:24:56.551Z,22.73
2018-06-13T06:27:24.733Z,18.13
2018-06-13T06:29:52.875Z,21.30
2018-06-13T06:32:20.992Z,18.93
2018-06-13T06:34:49.166Z,15.60
2018-06-13T06:37:17.285Z,16.53
2018-06-13T06:39:45.412Z,22.53
2018-06-13T06:42:13.594Z,21.07
2018-06-13T06:44:41.673Z,18.53
2018-06-13T06:47:09.827Z,22.20
2018-06-13T06:49:37.976Z,17.53
2018-06-13T06:52:05.844Z,19.77
2018-06-13T06:54:33.978Z,17.27
2018-06-13T06:57:02.103Z,18.27
2018-06-13T06:59:30.243Z,17.97
2018-06-13T07:01:58.383Z,15.77
2018-06-13T07:04:26.546Z,18.97
2018-06-13T07:06:54.678Z,19.27
2018-06-13T07:09:22.835Z,21.07
2018-06-13T07:11:50.962Z,15.53
2018-06-13T07:14:19.104Z,16.50
2018-06-13T07:16:47.259Z,20.50
2018-06-13T07:19:15.391Z,19.10
2018-06-13T07:21:43.514Z,21.73
2018-06-13T07:24:11.637Z,20.00
2018-06-13T07:26:39.763Z,20.20
2018-06-13T07:29:07.894Z,18.27
2018-06-13T07:31:36.070Z,20.30
2018-06-13T07:34:04.203Z,16.43
2018-06-13T07:36:32.349Z,14.93
2018-06-13T07:39:00.486Z,17.90
2018-06-13T07:41:28.613Z,14.87
2018-06-13T07:43:56.767Z,14.97
2018-06-13T07:46:24.890Z,18.30
2018-06-13T07:48:53.331Z,20.27
2018-06-13T07:51:21.450Z,15.60
2018-06-13T07:53:49.587Z,14.23
2018-06-13T07:56:17.752Z,13.67
2018-06-13T07:58:45.894Z,14.57
2018-06-13T08:01:14.023Z,17.70
2018-06-13T08:03:42.176Z,16.67
2018-06-13T08:06:10.300Z,15.27
2018-06-13T08:08:38.537Z,18.23
2018-06-13T08:11:06.550Z,16.17
2018-06-13T08:13:34.671Z,15.40
2018-06-13T08:16:02.786Z,15.13
2018-06-13T08:18:30.906Z,13.67
2018-06-13T08:20:59.027Z,14.20
2018-06-13T08:23:27.155Z,13.50
2018-06-13T08:25:55.442Z,10.87
2018-06-13T08:28:23.550Z,12.53
2018-06-13T08:30:51.677Z,12.07
2018-06-13T08:33:19.822Z,12.80
2018-06-13T08:35:47.937Z,11.77
2018-06-13T08:38:16.054Z,11.53
2018-06-13T08:40:44.176Z,10.33
2018-06-13T08:43:12.358Z,12.60
2018-06-13T08:45:40.509Z,11.03
2018-06-13T08:48:08.622Z,10.10
2018-06-13T08:50:36.778Z,8.87
2018-06-13T08:53:04.945Z,9.00
2018-06-13T08:55:33.069Z,9.20
2018-06-13T08:58:01.190Z,10.80
2018-06-13T09:00:29.305Z,11.17
2018-06-13T09:02:57.418Z,11.67
2018-06-13T09:05:25.574Z,10.10
2018-06-13T09:07:53.706Z,9.73
2018-06-13T09:10:21.856Z,10.27
2018-06-13T09:12:49.986Z,12.10
2018-06-13T09:15:18.086Z,8.63
2018-06-13T09:17:46.246Z,11.10
2018-06-13T09:20:14.379Z,8.73
2018-06-13T09:22:42.502Z,9.30
2018-06-13T09:25:10.623Z,9.13
2018-06-13T09:27:38.787Z,10.30
2018-06-13T09:30:06.906Z,11.60
2018-06-13T09:32:35.031Z,8.77
2018-06-13T09:35:03.158Z,9.43
2018-06-13T09:37:31.336Z,9.30
2018-06-13T09:39:59.422Z,10.37
2018-06-13T09:42:27.535Z,9.63
2018-06-13T09:44:55.682Z,10.50
2018-06-13T09:47:23.845Z,8.97
2018-06-13T09:49:51.969Z,9.13
2018-06-13T09:52:20.093Z,8.07
2018-06-13T09:54:48.263Z,8.53
2018-06-13T09:57:16.327Z,8.10
2018-06-13T09:59:49.758Z,8.30
2018-06-13T10:02:18.358Z,10.13
2018-06-13T10:04:47.425Z,8.17
2018-06-13T10:07:15.542Z,8.60
2018-06-13T10:09:43.664Z,8.87
2018-06-13T10:12:11.787Z,8.20
2018-06-13T10:14:39.909Z,7.67
2018-06-13T10:17:08.022Z,10.50
2018-06-13T10:19:36.197Z,7.87
2018-06-13T10:22:04.391Z,8.10
2018-06-13T10:24:32.526Z,8.50
2018-06-13T10:27:04.913Z,7.93
2018-06-13T10:29:33.051Z,7.97
2018-06-13T10:32:01.180Z,7.40
2018-06-13T10:34:29.301Z,8.87
2018-06-13T10:36:57.417Z,9.20
2018-06-13T10:39:25.548Z,10.23
2018-06-13T10:41:53.653Z,7.47
2018-06-13T10:44:21.829Z,7.37
2018-06-13T10:46:49.934Z,8.90
2018-06-13T10:49:18.054Z,7.57
2018-06-13T10:51:46.177Z,7.07
2018-06-13T10:54:14.282Z,8.00
2018-06-13T10:56:42.422Z,8.27
2018-06-13T10:59:10.551Z,10.30
2018-06-13T11:01:38.685Z,8.07
2018-06-13T11:04:06.801Z,8.07
2018-06-13T11:06:34.929Z,10.03
2018-06-13T11:09:03.138Z,11.97
2018-06-13T11:11:31.258Z,13.40
2018-06-13T11:13:59.370Z,10.77
2018-06-13T11:16:27.502Z,9.70
2018-06-13T11:18:55.690Z,10.80
2018-06-13T11:21:23.575Z,9.13
2018-06-13T11:23:51.699Z,8.83
2018-06-13T11:26:19.831Z,9.40
2018-06-13T11:28:47.996Z,9.83
2018-06-13T11:31:16.098Z,8.53
2018-06-13T11:33:44.207Z,9.70
2018-06-13T11:36:12.358Z,7.37
2018-06-13T11:38:40.477Z,8.37
2018-06-13T11:41:08.809Z,7.73
2018-06-13T11:43:36.918Z,8.00
2018-06-13T11:46:05.039Z,9.43
2018-06-13T11:48:33.155Z,8.10
2018-06-13T11:51:01.302Z,10.53
2018-06-13T11:53:29.742Z,7.80
2018-06-13T11:55:57.858Z,8.10
2018-06-13T11:58:25.985Z,7.50
2018-06-13T12:00:54.086Z,7.00
2018-06-13T12:03:22.194Z,7.60
2018-06-13T12:05:50.330Z,7.00
2018-06-13T12:08:18.441Z,6.87
2018-06-13T12:10:46.538Z,6.90
2018-06-13T12:13:14.661Z,8.27
2018-06-13T12:15:42.819Z,6.70
2018-06-13T12:18:10.946Z,8.23
2018-06-13T12:20:39.053Z,7.83
2018-06-13T12:23:07.171Z,7.87
2018-06-13T12:25:35.274Z,7.00
2018-06-13T12:28:03.490Z,8.47
2018-06-13T12:30:31.600Z,8.30
2018-06-13T12:32:59.762Z,8.20
2018-06-13T12:35:27.862Z,8.43
2018-06-13T12:37:55.977Z,9.07
2018-06-13T12:40:24.085Z,9.63
2018-06-13T12:42:51.978Z,9.30
2018-06-13T12:45:20.110Z,9.60
2018-06-13T12:47:48.227Z,9.43
2018-06-13T12:50:16.334Z,8.60
2018-06-13T12:52:44.447Z,9.47
2018-06-13T12:55:12.555Z,8.50
2018-06-13T12:57:40.682Z,12.37
2018-06-13T13:00:08.796Z,8.90
2018-06-13T13:02:36.917Z,8.50
2018-06-13T13:05:05.041Z,8.13
2018-06-13T13:07:33.141Z,9.57
2018-06-13T13:10:01.257Z,9.87
2018-06-13T13:12:29.376Z,8.17
2018-06-13T13:14:57.538Z,7.77
2018-06-13T13:17:25.658Z,9.83
2018-06-13T13:19:53.772Z,9.13
2018-06-13T13:22:21.919Z,12.47
2018-06-13T13:24:50.036Z,8.23
2018-06-13T13:27:18.144Z,9.47
2018-06-13T13:29:46.261Z,8.57
2018-06-13T13:32:14.358Z,8.37
2018-06-13T13:34:42.483Z,7.77
2018-06-13T13:37:10.581Z,8.90
2018-06-13T13:39:38.708Z,8.57
2018-06-13T13:42:06.821Z,9.67
2018-06-13T13:44:34.933Z,8.53
2018-06-13T13:47:03.046Z,10.43
2018-06-13T13:49:31.155Z,7.60
2018-06-13T13:51:59.254Z,9.27
2018-06-13T13:54:27.386Z,11.43
2018-06-13T13:56:55.490Z,9.00
2018-06-13T13:59:23.609Z,9.37
2018-06-13T14:01:51.718Z,8.30
2018-06-13T14:04:19.825Z,7.37
2018-06-13T14:06:47.963Z,9.27
2018-06-13T14:09:16.070Z,7.50
2018-06-13T14:11:44.226Z,7.03
2018-06-13T14:14:12.622Z,7.03
2018-06-13T14:16:40.804Z,8.97
2018-06-13T14:19:08.970Z,7.43
2018-06-13T14:21:37.078Z,9.97
2018-06-13T14:24:05.218Z,6.57
2018-06-13T14:26:33.337Z,7.43
2018-06-13T14:29:01.470Z,6.73
2018-06-13T14:31:29.588Z,7.07
2018-06-13T14:33:57.711Z,6.93
2018-06-13T14:36:25.833Z,6.40
2018-06-13T14:38:53.966Z,6.60
2018-06-13T14:41:22.126Z,6.10
2018-06-13T14:43:50.245Z,7.03
2018-06-13T14:46:18.466Z,7.47
2018-06-13T14:48:46.585Z,8.43
2018-06-13T14:51:14.758Z,7.40
2018-06-13T14:53:42.878Z,7.10
2018-06-13T14:56:16.402Z,5.70
2018-06-13T14:58:44.513Z,8.83
2018-06-13T15:01:12.751Z,6.70
2018-06-13T15:03:41.632Z,6.03
2018-06-13T15:06:09.818Z,6.60
2018-06-13T15:08:38.061Z,9.00
2018-06-13T15:11:06.583Z,6.00
2018-06-13T15:13:34.693Z,4.83
2018-06-13T15:16:02.829Z,6.27
2018-06-13T15:18:31.047Z,5.43
2018-06-13T15:20:59.173Z,8.10
2018-06-13T15:23:27.294Z,5.90
2018-06-13T15:25:55.401Z,8.80
2018-06-13T15:28:23.501Z,4.73
2018-06-13T15:30:51.623Z,5.17
2018-06-13T15:33:19.738Z,4.77
2018-06-13T15:35:47.861Z,5.67
2018-06-13T15:38:15.960Z,4.87
2018-06-13T15:40:44.087Z,6.40
2018-06-13T15:43:12.208Z,6.10
2018-06-13T15:45:40.321Z,7.13
2018-06-13T15:48:08.430Z,6.97
2018-06-13T15:50:36.659Z,4.87
2018-06-13T15:53:04.758Z,5.70
2018-06-13T15:55:32.930Z,6.70
2018-06-13T15:58:01.158Z,6.07
2018-06-13T16:00:29.302Z,7.03
2018-06-13T16:02:57.422Z,5.57
2018-06-13T16:05:25.571Z,8.47
2018-06-13T16:07:53.817Z,6.73
2018-06-13T16:10:21.942Z,7.47
2018-06-13T16:12:50.074Z,8.03
2018-06-13T16:15:18.162Z,5.87
2018-06-13T16:17:46.290Z,7.17
2018-06-13T16:20:14.410Z,6.17
2018-06-13T16:22:42.531Z,6.13
2018-06-13T16:25:10.635Z,6.80
2018-06-13T16:27:38.761Z,10.13
2018-06-13T16:30:06.894Z,6.67
2018-06-13T16:32:35.006Z,6.83
2018-06-13T16:35:03.122Z,6.23
2018-06-13T16:37:31.238Z,6.43
2018-06-13T16:39:59.350Z,6.73
2018-06-13T16:42:27.466Z,6.57
2018-06-13T16:44:55.569Z,6.97
2018-06-13T16:47:23.454Z,7.73
2018-06-13T16:49:51.569Z,6.53
2018-06-13T16:52:31.174Z,9.87
2018-06-13T16:55:24.778Z,7.47
2018-06-13T16:57:53.189Z,7.63
2018-06-13T17:00:22.170Z,7.97
2018-06-13T17:02:51.062Z,9.27
2018-06-13T17:05:19.180Z,7.50
2018-06-13T17:07:47.721Z,6.67
2018-06-13T17:10:15.836Z,6.77
2018-06-13T17:12:43.971Z,7.10
2018-06-13T17:15:12.083Z,6.47
2018-06-13T17:17:40.214Z,7.83
2018-06-13T17:20:08.330Z,7.27
2018-06-13T17:22:36.442Z,7.47
2018-06-13T17:25:04.583Z,11.67
2018-06-13T17:27:32.805Z,8.27
2018-06-13T17:30:00.898Z,6.90
2018-06-13T17:32:29.018Z,10.03
2018-06-13T17:34:57.118Z,8.13
2018-06-13T17:37:25.244Z,9.03
2018-06-13T17:39:53.358Z,6.77
2018-06-13T17:42:21.465Z,9.70
2018-06-13T17:44:49.594Z,7.40
2018-06-13T17:47:17.745Z,10.73
2018-06-13T17:49:45.857Z,9.50
2018-06-13T17:52:13.994Z,9.60
2018-06-13T17:54:42.142Z,6.90
2018-06-13T17:57:10.282Z,10.00
2018-06-13T17:59:38.429Z,11.10
2018-06-13T18:02:06.566Z,7.03
2018-06-13T18:04:34.694Z,7.73
2018-06-13T18:07:02.829Z,7.47
2018-06-13T18:09:30.966Z,8.10
2018-06-13T18:11:59.042Z,9.97
2018-06-13T18:14:27.167Z,11.63
2018-06-13T18:16:55.282Z,9.67
2018-06-13T18:19:23.419Z,10.00
2018-06-13T18:21:51.554Z,8.73
2018-06-13T18:24:19.678Z,9.17
2018-06-13T18:26:47.798Z,7.70
2018-06-13T18:29:15.935Z,7.20
2018-06-13T18:31:44.043Z,8.27
2018-06-13T18:34:12.227Z,7.30
2018-06-13T18:36:40.287Z,7.23
2018-06-13T18:39:09.865Z,9.25
2018-06-13T18:41:37.985Z,7.60
2018-06-13T18:44:06.096Z,7.57
2018-06-13T18:46:34.250Z,9.97
2018-06-13T18:49:02.387Z,7.33
2018-06-13T18:51:30.507Z,8.83
2018-06-13T18:53:58.671Z,7.90
2018-06-13T18:56:26.782Z,7.80
2018-06-13T18:58:54.886Z,8.37
2018-06-13T19:01:23.015Z,9.33
2018-06-13T19:03:51.174Z,7.60
2018-06-13T19:06:19.255Z,11.70
2018-06-13T19:08:47.414Z,8.57
2018-06-13T19:11:15.571Z,8.23
2018-06-13T19:13:43.674Z,8.57
2018-06-13T19:16:11.822Z,10.23
2018-06-13T19:18:39.923Z,9.27
2018-06-13T19:21:08.049Z,8.87
2018-06-13T19:23:36.238Z,8.67
2018-06-13T19:26:04.358Z,8.37
2018-06-13T19:28:32.482Z,7.60
2018-06-13T19:31:00.615Z,10.33
2018-06-13T19:33:28.718Z,8.93
2018-06-13T19:35:56.857Z,8.57
2018-06-13T19:38:24.978Z,10.83
2018-06-13T19:40:53.093Z,9.83
2018-06-13T19:43:26.665Z,7.90
2018-06-13T19:45:54.761Z,8.30
2018-06-13T19:48:28.318Z,8.67
2018-06-13T19:50:56.444Z,8.70
2018-06-13T19:54:27.655Z,9.43
2018-06-13T19:56:55.774Z,7.80
2018-06-13T19:59:23.890Z,10.13
2018-06-13T20:01:52.017Z,10.20
2018-06-13T20:04:25.587Z,9.47
2018-06-13T20:06:53.698Z,9.07
2018-06-13T20:09:21.811Z,8.50
2018-06-13T20:11:49.934Z,7.50
2018-06-13T20:14:23.534Z,9.87
2018-06-13T20:16:57.026Z,10.70
2018-06-13T20:19:30.510Z,10.73
2018-06-13T20:21:59.598Z,7.70
2018-06-13T20:24:27.731Z,9.83
2018-06-13T20:27:01.172Z,10.80
2018-06-13T20:29:34.537Z,10.33
2018-06-13T20:32:03.011Z,8.47
2018-06-13T20:34:31.139Z,7.40
2018-06-13T20:36:59.238Z,10.70
2018-06-13T20:39:27.338Z,8.23
2018-06-13T20:41:55.467Z,7.30
2018-06-13T20:44:23.577Z,8.70
2018-06-13T20:46:51.692Z,10.33
2018-06-13T20:49:19.798Z,7.90
2018-06-13T20:51:47.943Z,7.30
2018-06-13T20:54:16.049Z,19.43
2018-06-13T20:56:44.167Z,8.10
2018-06-13T20:59:12.274Z,7.97
2018-06-13T21:01:40.390Z,9.90
2018-06-13T21:04:08.505Z,8.93
2018-06-13T21:06:36.783Z,9.67
2018-06-13T21:09:07.450Z,6.70
2018-06-13T21:11:35.566Z,10.50
2018-06-13T21:14:03.707Z,10.70
2018-06-13T21:16:31.831Z,7.80
2018-06-13T21:18:59.947Z,11.00
2018-06-13T21:21:28.055Z,8.23
2018-06-13T21:23:56.178Z,7.60
2018-06-13T21:26:24.302Z,8.57
2018-06-13T21:28:52.426Z,8.93
2018-06-13T21:31:20.549Z,13.67
2018-06-13T21:33:48.673Z,8.27
2018-06-13T21:36:16.782Z,8.90
2018-06-13T21:38:44.933Z,9.53
2018-06-13T21:41:13.046Z,10.47
2018-06-13T21:43:41.163Z,7.63
2018-06-13T21:46:09.292Z,9.53
2018-06-13T21:48:37.407Z,9.17
2018-06-13T21:51:05.539Z,9.03
2018-06-13T21:53:33.658Z,8.77
2018-06-13T21:56:01.759Z,9.97
2018-06-13T21:58:29.869Z,8.33
2018-06-13T22:00:57.988Z,8.47
2018-06-13T22:03:26.106Z,12.83
2018-06-13T22:05:54.218Z,9.77
2018-06-13T22:08:22.330Z,9.93
2018-06-13T22:10:50.439Z,10.27
2018-06-13T22:13:18.547Z,9.40
2018-06-13T22:15:46.688Z,10.50
2018-06-13T22:18:14.806Z,9.67
2018-06-13T22:20:42.931Z,10.87
2018-06-13T22:23:11.027Z,9.57
2018-06-13T22:25:39.155Z,8.60
2018-06-13T22:28:07.274Z,11.57
2018-06-13T22:30:35.391Z,8.57
2018-06-13T22:33:03.518Z,8.67
2018-06-13T22:35:31.639Z,12.80
2018-06-13T22:37:59.761Z,8.53
2018-06-13T22:40:27.866Z,8.43
2018-06-13T22:42:55.978Z,10.10
2018-06-13T22:45:24.096Z,8.97
2018-06-13T22:47:52.221Z,9.80
2018-06-13T22:50:20.326Z,9.50
2018-06-13T22:52:48.414Z,8.57
2018-06-13T22:55:16.538Z,10.43
2018-06-13T22:57:44.682Z,13.17
2018-06-13T23:00:15.598Z,8.70
2018-06-13T23:02:43.712Z,8.73
2018-06-13T23:05:11.826Z,8.83
2018-06-13T23:07:39.934Z,10.63
2018-06-13T23:10:08.045Z,11.93
2018-06-13T23:12:36.146Z,9.93
2018-06-13T23:15:04.395Z,10.33
2018-06-13T23:17:32.510Z,10.50
2018-06-13T23:20:00.631Z,9.70
2018-06-13T23:22:28.739Z,8.60
2018-06-13T23:24:56.882Z,9.03
2018-06-13T23:27:24.987Z,11.57
2018-06-13T23:29:53.117Z,12.37
2018-06-13T23:32:21.254Z,11.47
2018-06-13T23:34:49.380Z,10.30
2018-06-13T23:37:17.499Z,11.43
2018-06-13T23:39:45.628Z,9.77
2018-06-13T23:42:13.726Z,9.93
2018-06-13T23:44:41.858Z,11.43
2018-06-13T23:47:09.987Z,13.20
2018-06-13T23:49:38.091Z,10.27
2018-06-13T23:52:06.215Z,11.00
2018-06-13T23:54:34.310Z,9.50
2018-06-13T23:57:03.258Z,11.13
2018-06-13T23:59:31.468Z,13.87
